Time;durP1;ratioP1;P1;durP2;ratioP2;P2;SDS_P1;SDS_P2;PMS_P1;PMS_P2;Temp;Humidity;BMP_temperature;BMP_pressure;BME280_temperature;BME280_humidity;BME280_pressure;Samples;Min_cycle;Max_cycle;Signal;HPM_P1;HPM_P2
2022/08/15 00:02:34;;;;;;;;;;;;;;;22.10;100.00;99963.25;10063955;29;19932;-69
2022/08/15 00:07:53;;;;;;;;;;;;;;;22.10;100.00;99960.63;10068587;29;20018;-71
2022/08/15 00:13:01;;;;;;;;;;;;;;;22.14;100.00;99962.09;10068365;29;20428;-71
2022/08/15 00:18:17;;;;;;;;;;;;;;;22.08;100.00;99957.22;10067918;29;20240;-72
2022/08/15 00:23:23;;;;;;;;;;;;;;;22.08;100.00;99959.84;10067943;29;19928;-72
2022/08/15 00:28:29;;;;;;;;;;;;;;;22.06;100.00;99955.59;10067533;29;19928;-71
2022/08/15 00:33:42;;;;;;;;;;;;;;;22.04;100.00;99958.34;10067593;29;20339;-71
2022/08/15 00:38:45;;;;;;;;;;;;;;;21.97;100.00;99969.41;10067273;29;20342;-70
2022/08/15 00:43:52;;;;;;;;;;;;;;;21.97;100.00;99975.53;10066854;29;20362;-70
2022/08/15 00:48:57;;;;;;;;;;;;;;;21.88;100.00;99960.28;10067064;29;19928;-73
2022/08/15 00:54:05;;;;;;;;;;;;;;;21.85;100.00;99960.44;10066581;29;20278;-72
2022/08/15 00:59:13;;;;;;;;;;;;;;;21.86;100.00;99967.44;10066912;29;19927;-73
2022/08/15 01:04:18;;;;;;;;;;;;;;;21.89;100.00;99966.38;10066339;29;19928;-69
2022/08/15 01:09:21;;;;;;;;;;;;;;;21.84;100.00;99955.25;10066218;29;19928;-71
2022/08/15 01:14:25;;;;;;;;;;;;;;;21.84;100.00;99953.47;10065168;29;20250;-68
2022/08/15 01:19:50;;;;;;;;;;;;;;;21.83;100.00;99941.19;10065638;29;19944;-74
2022/08/15 01:24:58;;;;;;;;;;;;;;;21.75;100.00;99943.44;10065689;29;19935;-69
2022/08/15 01:30:23;;;;;;;;;;;;;;;21.73;100.00;99942.69;10065392;29;19928;-70
2022/08/15 01:35:48;;;;;;;;;;;;;;;21.71;100.00;99939.28;10065675;29;19928;-70
2022/08/15 01:40:59;;;;;;;;;;;;;;;21.72;100.00;99941.00;10064845;29;19933;-69
2022/08/15 01:46:06;;;;;;;;;;;;;;;21.67;100.00;99940.44;10065045;29;19928;-68
2022/08/15 01:51:12;;;;;;;;;;;;;;;21.69;100.00;99944.66;10064773;29;19928;-68
2022/08/15 01:56:19;;;;;;;;;;;;;;;21.65;100.00;99943.19;10064608;29;19942;-74
2022/08/15 02:01:42;;;;;;;;;;;;;;;21.65;100.00;99948.47;10064707;29;19938;-74
2022/08/15 02:06:55;;;;;;;;;;;;;;;21.68;100.00;99942.13;10064345;29;20386;-72
2022/08/15 02:12:00;;;;;;;;;;;;;;;21.67;100.00;99937.78;10063966;29;19939;-71
2022/08/15 02:17:20;;;;;;;;;;;;;;;21.60;100.00;99926.75;10064056;29;19935;-69
2022/08/15 02:22:26;;;;;;;;;;;;;;;21.58;100.00;99926.00;10063678;29;19932;-71
2022/08/15 02:27:32;;;;;;;;;;;;;;;21.50;100.00;99927.41;10063231;29;19995;-69
2022/08/15 02:32:39;;;;;;;;;;;;;;;21.52;100.00;99930.78;10063475;29;19953;-71
2022/08/15 02:37:42;;;;;;;;;;;;;;;21.51;100.00;99921.19;10063113;29;19996;-71
2022/08/15 02:43:03;;;;;;;;;;;;;;;21.48;100.00;99911.69;10062702;29;19929;-73
2022/08/15 02:48:07;;;;;;;;;;;;;;;21.47;100.00;99909.97;10062958;29;19932;-70
2022/08/15 02:53:29;;;;;;;;;;;;;;;21.44;100.00;99911.94;10062712;29;20351;-71
2022/08/15 02:58:34;;;;;;;;;;;;;;;21.45;100.00;99913.66;10062733;29;19928;-73
2022/08/15 03:03:44;;;;;;;;;;;;;;;21.42;100.00;99906.75;10062237;29;20254;-70
2022/08/15 03:08:47;;;;;;;;;;;;;;;21.37;100.00;99915.91;10061965;29;19928;-70
2022/08/15 03:13:52;;;;;;;;;;;;;;;21.37;100.00;99907.97;10062178;29;19928;-71
2022/08/15 03:18:56;;;;;;;;;;;;;;;21.33;100.00;99909.13;10062076;29;19936;-73
2022/08/15 03:23:59;;;;;;;;;;;;;;;21.30;100.00;99912.78;10062004;29;19960;-69
2022/08/15 03:29:06;;;;;;;;;;;;;;;21.34;100.00;99922.22;10062274;29;19928;-69
2022/08/15 03:34:18;;;;;;;;;;;;;;;21.33;100.00;99935.53;10061615;29;19928;-70
2022/08/15 03:39:30;;;;;;;;;;;;;;;21.35;100.00;99929.19;10067699;29;19940;-72
2022/08/15 03:44:35;;;;;;;;;;;;;;;21.31;100.00;99927.66;10069045;29;19928;-73
2022/08/15 03:49:40;;;;;;;;;;;;;;;21.36;100.00;99930.06;10069342;29;19928;-70
2022/08/15 03:55:04;;;;;;;;;;;;;;;21.40;100.00;99915.69;10069329;29;19928;-72
2022/08/15 04:00:20;;;;;;;;;;;;;;;21.38;100.00;99915.78;10068746;29;19965;-73
2022/08/15 04:05:25;;;;;;;;;;;;;;;21.39;100.00;99901.66;10068019;29;20257;-71
2022/08/15 04:10:28;;;;;;;;;;;;;;;21.43;100.00;99891.78;10068410;29;19928;-72
2022/08/15 04:15:44;;;;;;;;;;;;;;;21.37;100.00;99887.72;10068358;29;20271;-72
2022/08/15 04:21:10;;;;;;;;;;;;;;;21.41;100.00;99891.00;10068269;29;19928;-69
2022/08/15 04:26:14;;;;;;;;;;;;;;;21.41;100.00;99875.16;10067969;29;19928;-72
2022/08/15 04:31:29;;;;;;;;;;;;;;;21.35;100.00;99891.38;10067775;29;19935;-67
2022/08/15 04:36:36;;;;;;;;;;;;;;;21.32;100.00;99894.22;9730106;29;9999747;-67
2022/08/15 04:41:39;;;;;;;;;;;;;;;21.30;100.00;99893.44;10064037;29;19932;-66
2022/08/15 04:46:53;;;;;;;;;;;;;;;21.30;100.00;99901.38;10063705;29;19932;-68
2022/08/15 04:52:05;;;;;;;;;;;;;;;21.35;100.00;99894.00;10063986;29;20262;-67
2022/08/15 04:57:08;;;;;;;;;;;;;;;21.39;100.00;99895.53;10063799;29;20240;-66
2022/08/15 05:02:25;;;;;;;;;;;;;;;21.40;100.00;99913.91;10063381;29;19960;-70
2022/08/15 05:07:48;;;;;;;;;;;;;;;21.45;100.00;99919.75;10063581;29;19942;-70
2022/08/15 05:13:08;;;;;;;;;;;;;;;21.54;100.00;99908.63;10062931;29;19935;-69
2022/08/15 05:18:15;;;;;;;;;;;;;;;21.60;100.00;99912.69;10062789;29;19946;-68
2022/08/15 05:23:20;;;;;;;;;;;;;;;21.60;100.00;99917.97;10063019;29;19928;-68
2022/08/15 05:28:35;;;;;;;;;;;;;;;21.65;100.00;99921.19;10062449;29;20259;-67
2022/08/15 05:33:41;;;;;;;;;;;;;;;21.75;100.00;99919.66;10062202;29;19938;-70
2022/08/15 05:39:01;;;;;;;;;;;;;;;21.76;100.00;99924.00;10032722;29;19933;-69
2022/08/15 05:44:11;;;;;;;;;;;;;;;21.81;100.00;99935.19;10023412;29;20282;-68
2022/08/15 05:49:39;;;;;;;;;;;;;;;21.89;100.00;99940.81;10023856;29;19929;-69
2022/08/15 05:54:53;;;;;;;;;;;;;;;21.96;100.00;99949.19;10023372;29;19967;-69
2022/08/15 05:59:58;;;;;;;;;;;;;;;22.07;100.00;99949.38;10022478;29;20355;-67
2022/08/15 06:05:08;;;;;;;;;;;;;;;22.20;100.00;99955.56;10022864;29;19958;-69
2022/08/15 06:10:25;;;;;;;;;;;;;;;22.28;100.00;99945.38;10023259;29;19938;-69
2022/08/15 06:15:47;;;;;;;;;;;;;;;22.29;100.00;99945.28;10025873;29;19932;-72
2022/08/15 06:21:02;;;;;;;;;;;;;;;22.25;100.00;99954.34;10025406;29;19929;-73
2022/08/15 06:26:11;;;;;;;;;;;;;;;22.29;100.00;99939.13;10025424;29;20359;-74
2022/08/15 06:31:25;;;;;;;;;;;;;;;22.28;100.00;99948.84;10025163;29;19940;-73
2022/08/15 06:36:47;;;;;;;;;;;;;;;22.36;100.00;99945.72;10025127;29;19929;-74
2022/08/15 06:42:00;;;;;;;;;;;;;;;22.49;100.00;99939.53;10024699;29;19928;-71
2022/08/15 06:47:05;;;;;;;;;;;;;;;22.64;100.00;99938.53;10024897;29;20384;-70
2022/08/15 06:52:10;;;;;;;;;;;;;;;22.70;100.00;99926.72;10024746;29;19929;-72
2022/08/15 06:57:28;;;;;;;;;;;;;;;22.80;100.00;99915.41;10024415;29;19928;-71
2022/08/15 07:02:37;;;;;;;;;;;;;;;22.86;100.00;99911.50;10024447;29;19929;-73
2022/08/15 07:07:46;;;;;;;;;;;;;;;22.90;100.00;99916.47;10024370;29;20351;-72
2022/08/15 07:12:57;;;;;;;;;;;;;;;22.97;100.00;99924.84;10024235;29;19990;-72
2022/08/15 07:18:07;;;;;;;;;;;;;;;23.07;100.00;99933.03;10024018;29;19950;-71
2022/08/15 07:23:19;;;;;;;;;;;;;;;23.21;100.00;99932.94;10023896;29;19928;-73
2022/08/15 07:28:26;;;;;;;;;;;;;;;23.19;100.00;99937.47;10023933;29;19939;-69
2022/08/15 07:33:34;;;;;;;;;;;;;;;23.24;100.00;99941.53;10023928;29;19929;-71
2022/08/15 07:38:48;;;;;;;;;;;;;;;23.34;100.00;99932.00;10023465;29;19933;-71
2022/08/15 07:43:53;;;;;;;;;;;;;;;23.47;100.00;99932.03;10023188;29;19951;-72
2022/08/15 07:48:58;;;;;;;;;;;;;;;23.55;100.00;99924.38;10023079;29;20258;-71
2022/08/15 07:54:04;;;;;;;;;;;;;;;23.55;100.00;99924.38;10023342;29;19928;-71
2022/08/15 07:59:19;;;;;;;;;;;;;;;23.56;100.00;99931.34;10023259;29;19928;-74
2022/08/15 08:04:28;;;;;;;;;;;;;;;23.52;100.00;99924.59;9691902;29;9999726;-68
2022/08/15 08:09:35;;;;;;;;;;;;;;;23.54;100.00;99925.34;10057897;29;19987;-67
2022/08/15 08:14:45;;;;;;;;;;;;;;;23.68;100.00;99927.84;10058327;29;19935;-68
2022/08/15 08:19:55;;;;;;;;;;;;;;;23.81;100.00;99920.72;10057789;29;19943;-70
2022/08/15 08:25:02;;;;;;;;;;;;;;;23.96;100.00;99923.13;10062098;29;19928;-70
2022/08/15 08:30:19;;;;;;;;;;;;;;;24.07;100.00;99918.91;10081888;29;19939;-73
2022/08/15 08:35:46;;;;;;;;;;;;;;;24.15;100.00;99922.69;10102932;29;19950;-72
2022/08/15 08:46:33;;;;;;;;;;;;;;;24.30;100.00;99932.16;10102448;29;19928;-70
2022/08/15 08:51:42;;;;;;;;;;;;;;;24.29;100.00;99926.97;10102328;29;20270;-70
2022/08/15 08:56:50;;;;;;;;;;;;;;;24.23;100.00;99922.97;10102091;29;19932;-71
2022/08/15 09:02:01;;;;;;;;;;;;;;;24.32;100.00;99927.59;10101804;29;19927;-69
2022/08/15 09:07:06;;;;;;;;;;;;;;;24.41;100.00;99926.06;10077831;29;19960;-71
2022/08/15 09:17:40;;;;;;;;;;;;;;;24.75;100.00;99918.19;10062919;29;19928;-70
2022/08/15 09:23:02;;;;;;;;;;;;;;;24.96;100.00;99918.34;10062447;29;19984;-70
2022/08/15 09:28:12;;;;;;;;;;;;;;;25.10;100.00;99919.00;10062431;29;19988;-74
2022/08/15 09:33:49;;;;;;;;;;;;;;;25.13;100.00;99918.78;10061478;29;19928;-71
2022/08/15 09:39:02;;;;;;;;;;;;;;;25.23;100.00;99912.75;10062483;29;19928;-68
2022/08/15 09:44:23;;;;;;;;;;;;;;;25.48;100.00;99905.44;10061622;29;19928;-72
2022/08/15 09:49:48;;;;;;;;;;;;;;;25.63;100.00;99903.38;10061536;29;19936;-69
2022/08/15 09:55:01;;;;;;;;;;;;;;;25.79;100.00;99901.19;10060797;29;20390;-65
2022/08/15 10:00:17;;;;;;;;;;;;;;;26.92;100.00;99878.50;10023175;29;19932;-67
2022/08/15 10:05:27;;;;;;;;;;;;;;;28.95;91.46;99860.09;10040930;29;19932;-67
2022/08/15 10:10:47;;;;;;;;;;;;;;;29.34;88.08;99867.03;10023103;29;19940;-67
2022/08/15 10:15:51;;;;;;;;;;;;;;;28.15;94.82;99862.19;10022484;29;19932;-70
2022/08/15 10:21:02;;;;;;;;;;;;;;;27.43;99.79;99859.84;10022276;29;19984;-69
2022/08/15 10:26:10;;;;;;;;;;;;;;;27.26;100.00;99863.94;10022104;29;20019;-69
2022/08/15 10:31:38;;;;;;;;;;;;;;;27.62;97.58;99863.44;10021997;29;19960;-69
2022/08/15 10:37:11;;;;;;;;;;;;;;;28.04;96.12;99856.97;10022164;29;19939;-71
2022/08/15 10:42:21;;;;;;;;;;;;;;;27.97;94.86;99852.34;10020939;29;19936;-67
2022/08/15 10:47:32;;;;;;;;;;;;;;;28.05;93.19;99860.47;10021434;29;19968;-70
2022/08/15 10:52:41;;;;;;;;;;;;;;;28.08;92.92;99858.38;10024694;29;19939;-67
2022/08/15 10:57:48;;;;;;;;;;;;;;;27.91;92.35;99863.53;10059415;29;19928;-67
2022/08/15 11:02:55;;;;;;;;;;;;;;;27.32;95.26;99868.78;10059219;29;19950;-69
2022/08/15 11:08:17;;;;;;;;;;;;;;;26.93;97.85;99873.03;10057721;29;19968;-69
2022/08/15 11:13:25;;;;;;;;;;;;;;;26.70;98.90;99863.47;10058918;29;20366;-69
2022/08/15 11:18:34;;;;;;;;;;;;;;;26.61;100.00;99861.53;10058760;29;20397;-66
2022/08/15 11:23:41;;;;;;;;;;;;;;;26.75;100.00;99863.91;10058554;29;20429;-67
2022/08/15 11:28:46;;;;;;;;;;;;;;;27.17;99.19;99857.59;10058704;29;19954;-68
2022/08/15 11:33:58;;;;;;;;;;;;;;;27.41;97.40;99857.31;10058583;29;19928;-68
2022/08/15 11:39:12;;;;;;;;;;;;;;;27.75;95.24;99857.88;10058888;29;20025;-68
2022/08/15 11:44:22;;;;;;;;;;;;;;;28.07;91.08;99856.72;10058117;29;19938;-71
2022/08/15 11:49:28;;;;;;;;;;;;;;;28.06;92.16;99854.19;10059983;29;19932;-77
2022/08/15 11:54:32;;;;;;;;;;;;;;;28.20;90.52;99851.94;10058516;29;19979;-75
2022/08/15 11:59:39;;;;;;;;;;;;;;;28.38;90.16;99841.41;10063119;29;20366;-75
2022/08/15 12:04:44;;;;;;;;;;;;;;;28.36;90.94;99838.88;10060259;29;19933;-74
2022/08/15 12:10:18;;;;;;;;;;;;;;;28.36;88.92;99836.22;10027096;29;19933;-73
2022/08/15 12:15:41;;;;;;;;;;;;;;;28.24;91.07;99847.16;10026867;29;20012;-72
2022/08/15 12:21:04;;;;;;;;;;;;;;;28.16;91.49;99841.69;10026679;29;19935;-73
2022/08/15 12:26:08;;;;;;;;;;;;;;;27.97;92.28;99833.66;10026312;29;19932;-73
2022/08/15 12:31:34;;;;;;;;;;;;;;;27.87;92.36;99841.59;10026173;29;19933;-73
2022/08/15 12:36:39;;;;;;;;;;;;;;;27.90;89.05;99828.00;10026429;29;20339;-73
2022/08/15 12:42:02;;;;;;;;;;;;;;;27.97;89.37;99823.81;10025693;29;19929;-76
2022/08/15 12:47:29;;;;;;;;;;;;;;;28.05;88.54;99823.13;10025728;29;19933;-75
2022/08/15 12:52:35;;;;;;;;;;;;;;;28.21;88.01;99812.75;10025547;29;19929;-75
2022/08/15 12:57:38;;;;;;;;;;;;;;;28.26;87.11;99807.81;10024915;29;19928;-72
2022/08/15 13:03:07;;;;;;;;;;;;;;;28.13;87.42;99791.25;10025590;29;20599;-75
2022/08/15 13:08:20;;;;;;;;;;;;;;;28.10;86.37;99784.34;10057923;29;20269;-75
2022/08/15 13:13:29;;;;;;;;;;;;;;;28.08;87.17;99788.97;10062862;29;19938;-75
2022/08/15 13:18:34;;;;;;;;;;;;;;;29.00;83.18;99777.63;10062880;29;19932;-73
2022/08/15 13:23:40;;;;;;;;;;;;;;;30.06;79.67;99767.22;10062582;29;20314;-74
2022/08/15 13:29:03;;;;;;;;;;;;;;;29.45;81.87;99783.09;10062362;29;20018;-77
2022/08/15 13:34:09;;;;;;;;;;;;;;;28.78;84.01;99782.47;10082109;29;20314;-75
2022/08/15 13:39:15;;;;;;;;;;;;;;;28.39;85.39;99768.31;10100508;29;19942;-73
2022/08/15 13:44:34;;;;;;;;;;;;;;;28.13;86.57;99761.88;10102537;29;19928;-74
2022/08/15 13:49:39;;;;;;;;;;;;;;;28.65;83.29;99766.75;10103423;29;20010;-73
2022/08/15 13:54:42;;;;;;;;;;;;;;;28.86;81.56;99767.41;10104177;29;19928;-74
2022/08/15 13:59:51;;;;;;;;;;;;;;;28.84;81.33;99780.06;10102922;29;19935;-76
2022/08/15 14:05:00;;;;;;;;;;;;;;;29.03;80.13;99780.00;10102638;29;19932;-77
2022/08/15 14:10:05;;;;;;;;;;;;;;;29.47;79.01;99768.59;10102209;29;20271;-75
2022/08/15 14:15:28;;;;;;;;;;;;;;;29.63;77.90;99764.41;10102189;29;19936;-76
2022/08/15 14:20:52;;;;;;;;;;;;;;;29.78;78.05;99765.59;10101505;29;20354;-72
2022/08/15 14:25:58;;;;;;;;;;;;;;;29.94;77.35;99763.91;10101909;29;19928;-76
2022/08/15 14:31:21;;;;;;;;;;;;;;;30.06;76.68;99759.19;10101489;29;19927;-74
2022/08/15 14:36:26;;;;;;;;;;;;;;;30.14;76.82;99754.75;10101384;29;19928;-76
2022/08/15 14:41:31;;;;;;;;;;;;;;;29.92;74.71;99763.25;10101012;29;19928;-76
2022/08/15 14:46:39;;;;;;;;;;;;;;;29.93;74.04;99756.88;10099617;29;19928;-77
2022/08/15 14:51:52;;;;;;;;;;;;;;;29.88;73.10;99758.31;10100968;29;19927;-77
2022/08/15 14:57:19;;;;;;;;;;;;;;;29.71;73.66;99756.47;10100577;29;19927;-76
2022/08/15 15:02:28;;;;;;;;;;;;;;;29.51;72.22;99753.03;10100569;29;19928;-77
2022/08/15 15:07:57;;;;;;;;;;;;;;;29.17;73.28;99755.50;10100647;29;19928;-74
2022/08/15 15:13:04;;;;;;;;;;;;;;;28.84;77.05;99752.50;10100259;29;20243;-76
2022/08/15 15:18:10;;;;;;;;;;;;;;;28.67;77.45;99751.44;10100394;29;20346;-76
2022/08/15 15:23:36;;;;;;;;;;;;;;;28.53;77.34;99762.56;10100147;29;20418;-77
2022/08/15 15:28:40;;;;;;;;;;;;;;;28.41;77.20;99753.00;9730269;29;10000323;-74
2022/08/15 15:33:49;;;;;;;;;;;;;;;28.27;78.16;99745.41;10101542;29;19928;-76
2022/08/15 15:38:56;;;;;;;;;;;;;;;28.20;76.81;99746.97;10107158;29;19938;-76
2022/08/15 15:44:03;;;;;;;;;;;;;;;28.16;74.47;99753.59;10106929;29;20043;-78
2022/08/15 15:49:17;;;;;;;;;;;;;;;28.07;75.39;99749.94;10108059;29;20364;-72
2022/08/15 15:54:22;;;;;;;;;;;;;;;27.84;80.22;99748.50;10107606;29;19928;-68
2022/08/15 15:59:45;;;;;;;;;;;;;;;27.72;70.61;99738.06;9743756;29;9999834;-71
2022/08/15 16:05:02;;;;;;;;;;;;;;;27.63;73.20;99741.59;10065598;29;19934;-69
2022/08/15 16:10:15;;;;;;;;;;;;;;;27.51;77.01;99750.69;10065552;29;19932;-72
2022/08/15 16:15:25;;;;;;;;;;;;;;;27.27;80.86;99743.00;10065565;29;19932;-72
2022/08/15 16:20:50;;;;;;;;;;;;;;;27.12;80.28;99753.22;10064121;29;19939;-71
2022/08/15 16:25:56;;;;;;;;;;;;;;;27.08;78.95;99756.28;10064545;29;19928;-69
2022/08/15 16:31:02;;;;;;;;;;;;;;;26.97;80.24;99767.03;10063726;29;19932;-76
2022/08/15 16:36:08;;;;;;;;;;;;;;;26.93;77.53;99771.78;10059887;29;19934;-75
2022/08/15 16:41:37;;;;;;;;;;;;;;;26.90;76.24;99771.22;10063843;29;19940;-75
2022/08/15 16:46:53;;;;;;;;;;;;;;;26.83;75.94;99764.72;10063295;29;19939;-76
2022/08/15 16:52:02;;;;;;;;;;;;;;;26.75;77.54;99767.22;10063736;29;19932;-75
2022/08/15 16:57:18;;;;;;;;;;;;;;;26.66;77.71;99776.78;10062333;29;19940;-76
2022/08/15 17:02:38;;;;;;;;;;;;;;;26.58;79.02;99781.91;10063210;29;20001;-76
2022/08/15 17:08:04;;;;;;;;;;;;;;;26.46;80.35;99774.13;10063079;29;19928;-75
2022/08/15 17:13:26;;;;;;;;;;;;;;;26.42;81.49;99773.53;10063228;29;19948;-74
2022/08/15 17:18:36;;;;;;;;;;;;;;;26.32;82.48;99777.94;10062842;29;19936;-75
2022/08/15 17:23:51;;;;;;;;;;;;;;;26.24;83.53;99777.75;10062532;29;19999;-74
2022/08/15 17:29:07;;;;;;;;;;;;;;;26.15;84.06;99775.84;10062502;29;19932;-66
2022/08/15 17:34:14;;;;;;;;;;;;;;;26.10;85.21;99786.88;10062333;29;19928;-64
2022/08/15 17:39:40;;;;;;;;;;;;;;;26.00;86.09;99793.91;10062532;29;20014;-67
2022/08/15 17:45:00;;;;;;;;;;;;;;;25.92;86.77;99795.53;10061746;29;20253;-69
2022/08/15 17:50:26;;;;;;;;;;;;;;;25.82;87.20;99791.91;10061762;29;19932;-67
2022/08/15 17:55:53;;;;;;;;;;;;;;;25.75;88.45;99796.88;10060642;29;19948;-68
2022/08/15 18:01:01;;;;;;;;;;;;;;;25.65;89.66;99803.91;10061150;29;19932;-67
2022/08/15 18:06:05;;;;;;;;;;;;;;;25.54;90.55;99813.72;10061024;29;19936;-68
2022/08/15 18:11:13;;;;;;;;;;;;;;;25.48;91.42;99812.41;10061233;29;19928;-67
2022/08/15 18:16:20;;;;;;;;;;;;;;;25.39;92.45;99814.94;10060606;29;19971;-66
2022/08/15 18:21:30;;;;;;;;;;;;;;;25.32;93.21;99814.56;10060467;29;19936;-67
2022/08/15 18:26:34;;;;;;;;;;;;;;;25.26;93.42;99817.72;10060254;29;19928;-64
2022/08/15 18:31:59;;;;;;;;;;;;;;;25.19;94.00;99826.28;10059947;29;20019;-68
2022/08/15 18:37:06;;;;;;;;;;;;;;;25.14;94.40;99832.78;10060457;29;20358;-65
2022/08/15 18:42:20;;;;;;;;;;;;;;;25.06;95.89;99832.53;10059614;29;19929;-66
2022/08/15 18:47:26;;;;;;;;;;;;;;;25.01;96.60;99826.75;10059884;29;19942;-68
2022/08/15 18:52:33;;;;;;;;;;;;;;;24.96;96.75;99839.53;10059731;29;20258;-69
2022/08/15 18:57:40;;;;;;;;;;;;;;;24.94;97.46;99836.16;10052320;29;20000;-64
2022/08/15 19:02:51;;;;;;;;;;;;;;;24.88;98.01;99839.28;10021240;29;20011;-74
2022/08/15 19:08:00;;;;;;;;;;;;;;;24.84;98.09;99843.13;10021257;29;19932;-74
2022/08/15 19:13:09;;;;;;;;;;;;;;;24.83;98.56;99838.78;10020989;29;19933;-75
2022/08/15 19:18:21;;;;;;;;;;;;;;;24.80;99.42;99844.31;10020754;29;19984;-74
2022/08/15 19:23:41;;;;;;;;;;;;;;;24.75;100.00;99842.97;10021123;29;19936;-73
2022/08/15 19:28:56;;;;;;;;;;;;;;;24.71;100.00;99853.00;10020490;29;20011;-77
2022/08/15 19:34:04;;;;;;;;;;;;;;;24.68;100.00;99853.19;10020912;29;19939;-75
2022/08/15 19:39:12;;;;;;;;;;;;;;;24.65;100.00;99853.44;10020876;29;19984;-75
2022/08/15 19:44:24;;;;;;;;;;;;;;;24.62;100.00;99852.81;10020149;29;19964;-74
2022/08/15 19:55:11;;;;;;;;;;;;;;;24.53;100.00;99856.16;10020114;29;19991;-67
2022/08/15 20:00:38;;;;;;;;;;;;;;;24.44;100.00;99856.84;10049494;29;19929;-68
2022/08/15 20:05:49;;;;;;;;;;;;;;;24.39;100.00;99861.66;10058809;29;19929;-68
2022/08/15 20:11:16;;;;;;;;;;;;;;;24.35;100.00;99863.69;10058046;29;19929;-67
2022/08/15 20:16:22;;;;;;;;;;;;;;;24.34;100.00;99859.34;10058019;29;20358;-69
2022/08/15 20:21:51;;;;;;;;;;;;;;;24.28;100.00;99867.75;10063846;29;20370;-66
2022/08/15 20:27:08;;;;;;;;;;;;;;;24.27;100.00;99863.41;10064880;29;19935;-69
2022/08/15 20:32:15;;;;;;;;;;;;;;;24.25;100.00;99872.44;10065069;29;19929;-67
2022/08/15 20:37:42;;;;;;;;;;;;;;;24.22;100.00;99873.53;10064304;29;19996;-68
2022/08/15 20:42:49;;;;;;;;;;;;;;;24.22;100.00;99878.84;10064026;29;19932;-66
2022/08/15 20:47:56;;;;;;;;;;;;;;;24.21;100.00;99874.50;10063752;29;19928;-69
2022/08/15 20:53:20;;;;;;;;;;;;;;;24.19;100.00;99876.41;10063762;29;19928;-70
2022/08/15 20:58:40;;;;;;;;;;;;;;;24.18;100.00;99881.84;10050891;29;19929;-66
2022/08/15 21:04:05;;;;;;;;;;;;;;;24.13;100.00;99874.19;10025286;29;19935;-67
2022/08/15 21:09:36;;;;;;;;;;;;;;;24.13;100.00;99884.81;10025163;29;19928;-66
2022/08/15 21:14:47;;;;;;;;;;;;;;;24.08;100.00;99891.41;10024944;29;20031;-67
2022/08/15 21:20:22;;;;;;;;;;;;;;;24.07;100.00;99884.41;10024700;29;19929;-65
2022/08/15 21:25:42;;;;;;;;;;;;;;;24.08;100.00;99891.41;10024608;29;20016;-69
2022/08/15 21:30:50;;;;;;;;;;;;;;;24.04;100.00;99885.47;10024713;29;20270;-66
2022/08/15 21:36:36;;;;;;;;;;;;;;;23.97;100.00;99894.78;10024193;29;20397;-67
2022/08/15 21:41:48;;;;;;;;;;;;;;;23.93;100.00;99890.69;10023864;29;19929;-66
2022/08/15 21:47:09;;;;;;;;;;;;;;;23.93;100.00;99896.84;10023656;29;19929;-68
2022/08/15 21:52:34;;;;;;;;;;;;;;;23.92;100.00;99900.44;10023639;29;19939;-67
2022/08/15 21:57:42;;;;;;;;;;;;;;;23.91;100.00;99905.84;10030734;29;19936;-68
2022/08/15 22:02:56;;;;;;;;;;;;;;;23.85;100.00;99903.63;10061490;29;19955;-68
2022/08/15 22:08:00;;;;;;;;;;;;;;;23.83;100.00;99898.44;10061146;29;19935;-72
2022/08/15 22:13:24;;;;;;;;;;;;;;;23.82;100.00;99902.06;10060997;29;20007;-66
2022/08/15 22:18:27;;;;;;;;;;;;;;;23.77;100.00;99898.03;10060869;29;19936;-66
2022/08/15 22:23:35;;;;;;;;;;;;;;;23.77;100.00;99892.75;10060790;29;19928;-66
2022/08/15 22:28:40;;;;;;;;;;;;;;;23.72;100.00;99893.09;10060752;29;19929;-66
2022/08/15 22:34:02;;;;;;;;;;;;;;;23.72;100.00;99879.81;10060327;29;19928;-68
2022/08/15 22:39:11;;;;;;;;;;;;;;;23.71;100.00;99874.63;10060043;29;19938;-66
2022/08/15 22:44:20;;;;;;;;;;;;;;;23.70;100.00;99879.09;10059332;29;19942;-65
2022/08/15 22:49:33;;;;;;;;;;;;;;;23.72;100.00;99877.19;10059785;29;19939;-65
2022/08/15 22:54:39;;;;;;;;;;;;;;;23.75;100.00;99868.13;10060135;29;19938;-66
2022/08/15 22:59:46;;;;;;;;;;;;;;;23.69;100.00;99874.72;10059547;29;19938;-68
2022/08/15 23:05:01;;;;;;;;;;;;;;;23.66;100.00;99876.78;10059502;29;20362;-66
2022/08/15 23:10:17;;;;;;;;;;;;;;;23.62;100.00;99872.63;10059211;29;19928;-62
2022/08/15 23:15:30;;;;;;;;;;;;;;;23.50;100.00;99874.38;10059079;29;19944;-63
2022/08/15 23:20:38;;;;;;;;;;;;;;;23.49;100.00;99877.09;10058938;29;19942;-63
2022/08/15 23:25:41;;;;;;;;;;;;;;;23.49;100.00;99870.00;10059193;29;19939;-67
2022/08/15 23:30:53;;;;;;;;;;;;;;;23.43;100.00;99870.44;10058649;29;19932;-64
2022/08/15 23:35:57;;;;;;;;;;;;;;;23.45;100.00;99870.34;10058461;29;20267;-65
2022/08/15 23:41:05;;;;;;;;;;;;;;;23.41;100.00;99868.84;10058394;29;20028;-64
2022/08/15 23:46:09;;;;;;;;;;;;;;;23.43;100.00;99861.66;10058452;29;19952;-62
2022/08/15 23:51:32;;;;;;;;;;;;;;;23.40;100.00;99865.34;10058732;29;19929;-68
2022/08/15 23:56:43;;;;;;;;;;;;;;;23.35;100.00;99861.34;10064501;29;19928;-65
